createdAt,value
2018-11-06T00:00:34.679Z,19.57
2018-11-06T00:03:08.391Z,21.97
2018-11-06T00:05:36.616Z,20.47
2018-11-06T00:08:05.150Z,22.17
2018-11-06T00:10:33.355Z,19.67
2018-11-06T00:13:01.572Z,19.70
2018-11-06T00:15:29.905Z,20.17
2018-11-06T00:17:58.103Z,19.47
2018-11-06T00:20:26.356Z,20.17
2018-11-06T00:22:54.552Z,19.57
2018-11-06T00:25:22.814Z,20.40
2018-11-06T00:27:51.010Z,20.10
2018-11-06T00:30:19.244Z,19.57
2018-11-06T00:32:47.434Z,19.50
2018-11-06T00:35:15.960Z,19.73
2018-11-06T00:37:44.891Z,20.43
2018-11-06T00:40:13.267Z,19.83
2018-11-06T00:42:41.462Z,18.63
2018-11-06T00:45:13.326Z,18.80
2018-11-06T00:47:41.654Z,18.77
2018-11-06T00:50:10.919Z,20.10
2018-11-06T00:52:40.233Z,21.20
2018-11-06T00:55:09.163Z,18.37
2018-11-06T00:57:38.366Z,19.00
2018-11-06T01:00:09.337Z,16.97
2018-11-06T01:02:37.746Z,18.17
2018-11-06T01:05:07.009Z,18.83
2018-11-06T01:07:35.206Z,16.13
2018-11-06T01:10:03.631Z,19.33
2018-11-06T01:12:31.826Z,16.30
2018-11-06T01:15:00.017Z,17.43
2018-11-06T01:17:28.241Z,16.63
2018-11-06T01:19:56.411Z,17.07
2018-11-06T01:22:24.944Z,18.53
2018-11-06T01:24:53.168Z,17.27
2018-11-06T01:27:21.400Z,18.13
2018-11-06T01:29:49.606Z,17.60
2018-11-06T01:32:17.836Z,16.57
2018-11-06T01:34:46.021Z,16.30
2018-11-06T01:37:14.235Z,16.20
2018-11-06T01:39:42.426Z,15.30
2018-11-06T01:42:10.623Z,16.70
2018-11-06T01:44:38.811Z,15.27
2018-11-06T01:47:07.014Z,15.37
2018-11-06T01:49:35.207Z,17.00
2018-11-06T01:52:03.432Z,16.67
2018-11-06T01:54:31.663Z,16.60
2018-11-06T01:56:59.850Z,16.83
2018-11-06T01:59:28.093Z,16.10
2018-11-06T02:01:56.353Z,15.07
2018-11-06T02:04:24.576Z,14.63
2018-11-06T02:06:52.763Z,15.70
2018-11-06T02:09:20.958Z,15.10
2018-11-06T02:11:49.150Z,14.03
2018-11-06T02:14:17.370Z,15.80
2018-11-06T02:16:45.596Z,16.20
2018-11-06T02:19:13.788Z,15.47
2018-11-06T02:21:41.996Z,14.53
2018-11-06T02:24:10.228Z,14.27
2018-11-06T02:26:38.415Z,14.43
2018-11-06T02:29:06.631Z,14.27
2018-11-06T02:31:34.823Z,13.10
2018-11-06T02:34:03.051Z,15.67
2018-11-06T02:36:31.272Z,14.27
2018-11-06T02:38:59.488Z,13.90
2018-11-06T02:41:27.679Z,14.77
2018-11-06T02:43:55.912Z,14.80
2018-11-06T02:46:24.095Z,14.20
2018-11-06T02:48:52.336Z,15.17
2018-11-06T02:51:20.548Z,13.30
2018-11-06T02:53:48.780Z,13.93
2018-11-06T02:56:16.975Z,13.13
2018-11-06T02:58:45.208Z,12.80
2018-11-06T03:01:13.391Z,13.27
2018-11-06T03:03:42.477Z,13.83
2018-11-06T03:06:11.959Z,13.67
2018-11-06T03:08:40.327Z,12.50
2018-11-06T03:11:08.727Z,13.03
2018-11-06T03:13:36.962Z,12.37
2018-11-06T03:16:05.336Z,12.23
2018-11-06T03:18:33.524Z,12.47
2018-11-06T03:21:01.699Z,12.97
2018-11-06T03:23:29.895Z,12.07
2018-11-06T03:25:58.066Z,12.07
2018-11-06T03:28:26.260Z,12.47
2018-11-06T03:30:54.431Z,12.43
2018-11-06T03:33:22.624Z,12.27
2018-11-06T03:35:50.790Z,12.40
2018-11-06T03:38:18.960Z,11.70
2018-11-06T03:40:47.135Z,12.97
2018-11-06T03:43:15.298Z,13.13
2018-11-06T03:45:43.473Z,12.30
2018-11-06T03:48:11.639Z,12.57
2018-11-06T03:50:39.837Z,11.93
2018-11-06T03:53:08.047Z,13.10
2018-11-06T03:55:36.226Z,12.20
2018-11-06T03:58:04.424Z,10.87
2018-11-06T04:00:32.635Z,11.60
2018-11-06T04:03:00.807Z,12.10
2018-11-06T04:05:29.013Z,11.50
2018-11-06T04:07:57.196Z,12.33
2018-11-06T04:10:25.396Z,11.80
2018-11-06T04:12:53.632Z,12.90
2018-11-06T04:15:21.795Z,11.73
2018-11-06T04:17:49.955Z,11.97
2018-11-06T04:20:18.396Z,12.37
2018-11-06T04:22:46.596Z,11.90
2018-11-06T04:25:14.750Z,11.47
2018-11-06T04:27:42.921Z,12.43
2018-11-06T04:30:12.693Z,12.30
2018-11-06T04:32:41.604Z,11.40
2018-11-06T04:35:10.368Z,11.40
2018-11-06T04:37:39.363Z,10.40
2018-11-06T04:40:09.166Z,11.83
2018-11-06T04:42:37.407Z,12.10
2018-11-06T04:45:05.796Z,11.70
2018-11-06T04:47:33.963Z,12.10
2018-11-06T04:50:02.248Z,11.30
2018-11-06T04:52:30.423Z,11.43
2018-11-06T04:54:58.587Z,12.27
2018-11-06T04:57:26.796Z,11.23
2018-11-06T04:59:54.967Z,10.50
2018-11-06T05:02:23.272Z,12.60
2018-11-06T05:04:51.451Z,11.53
2018-11-06T05:07:19.666Z,11.67
2018-11-06T05:09:47.844Z,10.27
2018-11-06T05:12:16.282Z,11.23
2018-11-06T05:14:44.607Z,12.10
2018-11-06T05:17:12.812Z,12.63
2018-11-06T05:19:41.014Z,12.07
2018-11-06T05:22:09.349Z,10.90
2018-11-06T05:24:37.543Z,10.83
2018-11-06T05:27:05.772Z,11.83
2018-11-06T05:29:34.271Z,11.50
2018-11-06T05:32:02.538Z,10.80
2018-11-06T05:34:30.706Z,11.27
2018-11-06T05:36:58.904Z,10.67
2018-11-06T05:39:27.135Z,11.23
2018-11-06T05:41:55.239Z,10.63
2018-11-06T05:44:23.485Z,10.03
2018-11-06T05:46:51.682Z,9.83
2018-11-06T05:49:19.868Z,9.77
2018-11-06T05:51:48.048Z,9.43
2018-11-06T05:54:16.226Z,9.73
2018-11-06T05:56:44.424Z,9.80
2018-11-06T05:59:12.628Z,9.43
2018-11-06T06:01:40.789Z,9.03
2018-11-06T06:04:09.159Z,9.77
2018-11-06T06:06:37.340Z,8.83
2018-11-06T06:09:07.055Z,10.37
2018-11-06T06:11:35.219Z,10.20
2018-11-06T06:14:03.387Z,9.33
2018-11-06T06:16:31.670Z,9.03
2018-11-06T06:18:59.796Z,9.63
2018-11-06T06:21:28.108Z,10.43
2018-11-06T06:23:56.628Z,8.47
2018-11-06T06:26:24.799Z,8.90
2018-11-06T06:28:52.992Z,9.57
2018-11-06T06:31:21.246Z,9.33
2018-11-06T06:33:49.470Z,8.97
2018-11-06T06:36:17.697Z,9.67
2018-11-06T06:38:45.946Z,9.30
2018-11-06T06:41:14.095Z,9.30
2018-11-06T06:43:42.259Z,8.63
2018-11-06T06:46:10.449Z,9.63
2018-11-06T06:48:38.583Z,8.60
2018-11-06T06:51:06.755Z,9.53
2018-11-06T06:53:34.915Z,9.10
2018-11-06T06:56:03.123Z,9.90
2018-11-06T06:58:31.284Z,8.70
2018-11-06T07:00:59.488Z,7.87
2018-11-06T07:03:27.674Z,9.70
2018-11-06T07:05:55.854Z,10.73
2018-11-06T07:08:24.019Z,9.03
2018-11-06T07:10:52.207Z,8.87
2018-11-06T07:13:20.408Z,7.90
2018-11-06T07:15:48.640Z,7.63
2018-11-06T07:18:16.854Z,7.47
2018-11-06T07:20:45.092Z,7.33
2018-11-06T07:23:13.267Z,6.90
2018-11-06T07:25:41.443Z,6.97
2018-11-06T07:28:09.606Z,6.63
2018-11-06T07:30:37.779Z,8.10
2018-11-06T07:33:05.939Z,6.97
2018-11-06T07:35:34.308Z,7.60
2018-11-06T07:38:02.270Z,6.37
2018-11-06T07:40:30.548Z,5.60
2018-11-06T07:42:58.635Z,5.83
2018-11-06T07:45:26.812Z,5.17
2018-11-06T07:47:54.994Z,6.20
2018-11-06T07:50:23.266Z,6.33
2018-11-06T07:52:51.399Z,6.73
2018-11-06T07:55:19.831Z,6.03
2018-11-06T07:57:48.048Z,5.57
2018-11-06T08:00:18.702Z,5.33
2018-11-06T08:02:47.698Z,5.20
2018-11-06T08:05:16.150Z,5.70
2018-11-06T08:07:45.161Z,4.33
2018-11-06T08:10:13.385Z,5.13
2018-11-06T08:12:42.990Z,5.70
2018-11-06T08:15:11.862Z,4.53
2018-11-06T08:17:40.597Z,5.27
2018-11-06T08:20:08.791Z,5.07
2018-11-06T08:22:37.557Z,4.20
2018-11-06T08:25:06.510Z,4.30
2018-11-06T08:27:34.780Z,3.93
2018-11-06T08:30:03.063Z,4.03
2018-11-06T08:32:31.717Z,3.70
2018-11-06T08:34:59.451Z,3.30
2018-11-06T08:37:27.627Z,4.03
2018-11-06T08:39:55.813Z,3.50
2018-11-06T08:42:24.047Z,2.60
2018-11-06T08:44:52.219Z,3.27
2018-11-06T08:47:20.441Z,3.10
2018-11-06T08:49:48.685Z,2.93
2018-11-06T08:52:16.879Z,2.67
2018-11-06T08:54:45.156Z,2.40
2018-11-06T08:57:13.302Z,2.13
2018-11-06T08:59:41.475Z,2.17
2018-11-06T09:02:09.949Z,1.90
2018-11-06T09:04:38.126Z,1.97
2018-11-06T09:07:06.308Z,1.60
2018-11-06T09:09:34.494Z,2.23
2018-11-06T09:12:02.667Z,3.63
2018-11-06T09:14:30.858Z,2.60
2018-11-06T09:16:59.060Z,2.03
2018-11-06T09:19:27.292Z,2.17
2018-11-06T09:21:55.472Z,2.23
2018-11-06T09:24:23.647Z,2.30
2018-11-06T09:26:51.814Z,1.67
2018-11-06T09:29:19.991Z,1.23
2018-11-06T09:31:48.211Z,1.93
2018-11-06T09:34:16.451Z,1.50
2018-11-06T09:36:44.621Z,1.50
2018-11-06T09:39:12.970Z,1.90
2018-11-06T09:41:41.599Z,1.70
2018-11-06T09:44:09.771Z,1.40
2018-11-06T09:46:38.159Z,1.87
2018-11-06T09:49:06.663Z,1.50
2018-11-06T09:51:34.839Z,1.90
2018-11-06T09:54:03.003Z,1.40
2018-11-06T09:56:31.208Z,1.47
2018-11-06T09:58:59.389Z,1.73
2018-11-06T10:01:27.600Z,1.80
2018-11-06T10:03:55.800Z,1.77
2018-11-06T10:06:23.989Z,1.77
2018-11-06T10:08:52.138Z,2.03
2018-11-06T10:11:20.611Z,1.83
2018-11-06T10:13:48.786Z,1.13
2018-11-06T10:16:16.955Z,1.77
2018-11-06T10:18:45.118Z,1.40
2018-11-06T10:21:13.353Z,1.37
2018-11-06T10:23:41.592Z,1.60
2018-11-06T10:26:09.816Z,1.37
2018-11-06T10:28:37.999Z,1.70
2018-11-06T10:31:06.332Z,1.53
2018-11-06T10:33:34.500Z,1.40
2018-11-06T10:36:02.859Z,1.20
2018-11-06T10:38:31.111Z,0.90
2018-11-06T10:40:59.303Z,1.53
2018-11-06T10:43:27.483Z,0.90
2018-11-06T10:45:55.678Z,0.90
2018-11-06T10:48:23.855Z,0.90
2018-11-06T10:50:52.326Z,1.00
2018-11-06T10:53:20.510Z,1.40
2018-11-06T10:55:48.694Z,1.10
2018-11-06T10:58:16.957Z,1.03
2018-11-06T11:00:50.343Z,1.07
2018-11-06T11:03:23.961Z,1.27
2018-11-06T11:05:52.185Z,0.80
2018-11-06T11:08:20.438Z,0.90
2018-11-06T11:10:48.644Z,1.70
2018-11-06T11:13:16.832Z,1.67
2018-11-06T11:15:45.048Z,1.47
2018-11-06T11:18:13.226Z,1.40
2018-11-06T11:20:41.452Z,1.70
2018-11-06T11:23:09.642Z,1.47
2018-11-06T11:25:37.829Z,1.20
2018-11-06T11:28:06.003Z,1.83
2018-11-06T11:30:34.184Z,1.30
2018-11-06T11:33:02.387Z,1.50
2018-11-06T11:35:30.579Z,1.63
2018-11-06T11:37:58.758Z,1.80
2018-11-06T11:40:27.049Z,1.70
2018-11-06T11:42:55.222Z,2.27
2018-11-06T11:45:23.398Z,1.83
2018-11-06T11:47:51.591Z,2.40
2018-11-06T11:50:19.790Z,1.50
2018-11-06T11:52:48.024Z,1.47
2018-11-06T11:55:16.232Z,1.07
2018-11-06T11:57:44.424Z,1.20
2018-11-06T12:00:14.212Z,1.20
2018-11-06T12:02:42.558Z,1.47
2018-11-06T12:05:11.426Z,0.90
2018-11-06T12:07:39.606Z,1.10
2018-11-06T12:10:09.095Z,1.20
2018-11-06T12:12:37.324Z,1.63
2018-11-06T12:15:08.599Z,1.20
2018-11-06T12:17:36.806Z,1.07
2018-11-06T12:20:05.312Z,1.80
2018-11-06T12:22:33.532Z,1.03
2018-11-06T12:25:01.990Z,1.33
2018-11-06T12:27:29.896Z,1.03
2018-11-06T12:29:58.068Z,1.30
2018-11-06T12:32:26.318Z,1.17
2018-11-06T12:34:54.514Z,1.07
2018-11-06T12:37:22.876Z,1.13
2018-11-06T12:39:51.055Z,1.20
2018-11-06T12:42:19.291Z,1.47
2018-11-06T12:44:47.480Z,1.20
2018-11-06T12:47:15.676Z,1.00
2018-11-06T12:49:43.872Z,0.73
2018-11-06T12:52:12.069Z,1.37
2018-11-06T12:54:40.268Z,1.03
2018-11-06T12:57:08.441Z,0.90
2018-11-06T12:59:36.607Z,0.70
2018-11-06T13:02:05.390Z,1.20
2018-11-06T13:04:33.595Z,1.27
2018-11-06T13:07:01.754Z,1.03
2018-11-06T13:09:29.931Z,0.93
2018-11-06T13:11:58.103Z,0.97
2018-11-06T13:14:26.275Z,1.00
2018-11-06T13:16:54.450Z,0.90
2018-11-06T13:19:22.603Z,1.10
2018-11-06T13:21:50.820Z,1.60
2018-11-06T13:24:19.081Z,1.70
2018-11-06T13:26:47.318Z,1.00
2018-11-06T13:29:15.524Z,1.20
2018-11-06T13:31:43.710Z,0.97
2018-11-06T13:34:11.977Z,1.20
2018-11-06T13:36:40.448Z,0.87
2018-11-06T13:39:10.269Z,0.97
2018-11-06T13:41:38.480Z,1.03
2018-11-06T13:44:06.994Z,1.03
2018-11-06T13:46:35.120Z,0.80
2018-11-06T13:49:03.306Z,0.60
2018-11-06T13:51:31.777Z,0.80
2018-11-06T13:53:59.954Z,0.90
2018-11-06T13:56:28.133Z,0.70
2018-11-06T13:58:56.310Z,0.80
2018-11-06T14:01:24.490Z,1.40
2018-11-06T14:03:52.697Z,1.40
2018-11-06T14:06:20.891Z,1.90
2018-11-06T14:08:49.146Z,1.87
2018-11-06T14:11:17.351Z,1.83
2018-11-06T14:13:45.582Z,1.50
2018-11-06T14:16:13.782Z,1.60
2018-11-06T14:18:41.980Z,1.40
2018-11-06T14:21:10.324Z,1.20
2018-11-06T14:23:38.520Z,1.47
2018-11-06T14:26:06.910Z,1.20
2018-11-06T14:28:35.070Z,1.27
2018-11-06T14:31:03.327Z,0.97
2018-11-06T14:33:31.492Z,1.00
2018-11-06T14:35:59.787Z,1.47
2018-11-06T14:38:27.838Z,1.30
2018-11-06T14:40:56.000Z,1.50
2018-11-06T14:43:24.175Z,2.13
2018-11-06T14:45:52.335Z,1.47
2018-11-06T14:48:20.575Z,1.53
2018-11-06T14:50:48.752Z,1.50
2018-11-06T14:53:16.960Z,1.27
2018-11-06T14:55:45.175Z,0.93
2018-11-06T14:58:13.361Z,1.37
2018-11-06T15:00:41.539Z,1.10
2018-11-06T15:03:09.711Z,1.33
2018-11-06T15:05:38.053Z,1.57
2018-11-06T15:08:06.102Z,1.00
2018-11-06T15:10:34.262Z,1.53
2018-11-06T15:13:02.479Z,1.50
2018-11-06T15:15:30.643Z,1.43
2018-11-06T15:17:58.848Z,1.67
2018-11-06T15:20:27.085Z,1.37
2018-11-06T15:22:55.247Z,1.93
2018-11-06T15:25:23.447Z,1.43
2018-11-06T15:27:51.652Z,1.20
2018-11-06T15:30:20.111Z,2.40
2018-11-06T15:32:48.495Z,2.80
2018-11-06T15:35:18.297Z,2.70
2018-11-06T15:37:46.516Z,2.47
2018-11-06T15:40:16.211Z,2.63
2018-11-06T15:42:45.083Z,2.07
2018-11-06T15:45:14.477Z,2.03
2018-11-06T15:47:44.546Z,2.20
2018-11-06T15:50:13.972Z,2.90
2018-11-06T15:52:42.975Z,2.10
2018-11-06T15:55:11.840Z,2.20
2018-11-06T15:57:40.047Z,2.67
2018-11-06T16:00:13.838Z,3.10
2018-11-06T16:02:42.392Z,3.00
2018-11-06T16:05:10.559Z,3.80
2018-11-06T16:07:39.082Z,4.20
2018-11-06T16:10:10.894Z,3.77
2018-11-06T16:12:39.130Z,5.43
2018-11-06T16:15:07.817Z,5.90
2018-11-06T16:17:36.242Z,6.40
2018-11-06T16:20:04.819Z,7.57
2018-11-06T16:22:33.002Z,6.93
2018-11-06T16:25:01.191Z,5.97
2018-11-06T16:27:29.407Z,4.97
2018-11-06T16:29:57.818Z,5.03
2018-11-06T16:32:26.041Z,4.40
2018-11-06T16:34:54.412Z,4.57
2018-11-06T16:37:23.071Z,5.27
2018-11-06T16:39:51.282Z,5.20
2018-11-06T16:42:19.463Z,5.03
2018-11-06T16:44:47.647Z,4.67
2018-11-06T16:47:15.828Z,5.00
2018-11-06T16:49:44.015Z,4.80
2018-11-06T16:52:12.202Z,4.97
2018-11-06T16:54:40.390Z,5.50
2018-11-06T16:57:08.682Z,7.23
2018-11-06T16:59:36.859Z,7.57
2018-11-06T17:02:05.241Z,7.93
2018-11-06T17:04:33.464Z,7.17
2018-11-06T17:07:01.688Z,8.30
2018-11-06T17:09:29.872Z,7.57
2018-11-06T17:11:58.046Z,7.70
2018-11-06T17:14:26.207Z,6.83
2018-11-06T17:16:54.379Z,6.73
2018-11-06T17:19:22.551Z,5.87
2018-11-06T17:21:50.747Z,6.20
2018-11-06T17:24:18.903Z,6.00
2018-11-06T17:26:47.070Z,5.70
2018-11-06T17:29:15.264Z,6.50
2018-11-06T17:31:43.610Z,4.93
2018-11-06T17:34:11.804Z,6.37
2018-11-06T17:36:39.966Z,6.43
2018-11-06T17:39:10.667Z,6.63
2018-11-06T17:41:38.876Z,5.90
2018-11-06T17:44:07.094Z,6.17
2018-11-06T17:46:35.294Z,8.80
2018-11-06T17:49:03.471Z,11.27
2018-11-06T17:51:31.650Z,7.43
2018-11-06T17:53:59.864Z,11.23
2018-11-06T17:56:28.074Z,7.27
2018-11-06T17:58:56.231Z,5.97
2018-11-06T18:01:24.427Z,5.80
2018-11-06T18:03:52.638Z,5.50
2018-11-06T18:06:20.828Z,5.73
2018-11-06T18:08:49.008Z,6.20
2018-11-06T18:11:17.204Z,7.73
2018-11-06T18:13:45.368Z,8.33
2018-11-06T18:16:13.613Z,8.53
2018-11-06T18:18:41.958Z,9.40
2018-11-06T18:21:10.164Z,8.30
2018-11-06T18:23:38.355Z,8.37
2018-11-06T18:26:06.555Z,9.23
2018-11-06T18:28:34.752Z,9.30
2018-11-06T18:31:02.955Z,8.67
2018-11-06T18:33:31.111Z,8.17
2018-11-06T18:35:59.316Z,9.93
2018-11-06T18:38:27.567Z,9.10
2018-11-06T18:40:55.658Z,10.23
2018-11-06T18:43:23.853Z,8.63
2018-11-06T18:45:52.023Z,8.67
2018-11-06T18:48:20.207Z,9.23
2018-11-06T18:50:48.412Z,9.23
2018-11-06T18:53:16.604Z,9.90
2018-11-06T18:55:44.833Z,7.80
2018-11-06T18:58:13.162Z,8.03
2018-11-06T19:00:41.217Z,6.70
2018-11-06T19:03:09.402Z,7.10
2018-11-06T19:05:37.634Z,8.47
2018-11-06T19:08:06.055Z,7.23
2018-11-06T19:10:34.412Z,7.37
2018-11-06T19:13:02.551Z,7.90
2018-11-06T19:15:30.758Z,7.57
2018-11-06T19:17:58.947Z,7.90
2018-11-06T19:20:27.138Z,8.30
2018-11-06T19:22:55.322Z,7.40
2018-11-06T19:25:23.498Z,6.17
2018-11-06T19:27:51.691Z,5.33
2018-11-06T19:30:20.284Z,3.93
2018-11-06T19:32:49.103Z,4.70
2018-11-06T19:35:17.299Z,4.03
2018-11-06T19:37:45.523Z,4.17
2018-11-06T19:40:15.987Z,4.43
2018-11-06T19:42:45.180Z,4.63
2018-11-06T19:45:13.676Z,4.53
2018-11-06T19:47:41.954Z,4.77
2018-11-06T19:50:12.844Z,5.00
2018-11-06T19:52:41.361Z,4.67
2018-11-06T19:55:11.015Z,4.70
2018-11-06T19:57:40.911Z,5.10
2018-11-06T20:00:15.943Z,6.30
2018-11-06T20:02:45.608Z,6.00
2018-11-06T20:05:13.859Z,4.83
2018-11-06T20:07:43.042Z,4.97
2018-11-06T20:10:13.277Z,5.50
2018-11-06T20:12:42.679Z,5.43
2018-11-06T20:15:12.163Z,4.73
2018-11-06T20:17:41.287Z,5.37
2018-11-06T20:20:12.203Z,4.80
2018-11-06T20:22:40.580Z,8.17
2018-11-06T20:25:09.154Z,5.20
2018-11-06T20:27:37.451Z,4.17
2018-11-06T20:30:08.495Z,3.57
2018-11-06T20:32:37.637Z,3.50
2018-11-06T20:35:06.649Z,3.73
2018-11-06T20:37:35.024Z,4.10
2018-11-06T20:40:03.147Z,3.93
2018-11-06T20:42:31.399Z,4.47
2018-11-06T20:44:59.559Z,4.80
2018-11-06T20:47:27.799Z,4.30
2018-11-06T20:49:56.067Z,5.10
2018-11-06T20:52:24.292Z,5.60
2018-11-06T20:54:52.488Z,4.63
2018-11-06T20:57:20.660Z,5.63
2018-11-06T20:59:48.863Z,5.90
2018-11-06T21:02:17.039Z,6.60
2018-11-06T21:04:45.233Z,6.90
2018-11-06T21:07:13.427Z,6.60
2018-11-06T21:09:41.678Z,5.07
2018-11-06T21:12:09.977Z,8.63
2018-11-06T21:14:38.167Z,5.90
2018-11-06T21:17:06.523Z,5.20
2018-11-06T21:19:35.519Z,5.63
2018-11-06T21:22:03.883Z,6.20
2018-11-06T21:24:32.184Z,5.50
2018-11-06T21:27:00.531Z,5.83
2018-11-06T21:29:28.606Z,5.63
2018-11-06T21:31:56.850Z,6.00
2018-11-06T21:34:25.198Z,6.10
2018-11-06T21:36:53.376Z,6.77
2018-11-06T21:39:21.633Z,6.43
2018-11-06T21:41:49.811Z,6.67
2018-11-06T21:44:18.041Z,6.23
2018-11-06T21:46:46.299Z,6.93
2018-11-06T21:49:14.690Z,7.00
2018-11-06T21:51:42.979Z,7.43
2018-11-06T21:54:11.150Z,7.80
2018-11-06T21:56:39.523Z,7.83
2018-11-06T21:59:07.903Z,7.60
2018-11-06T22:01:36.083Z,9.50
2018-11-06T22:04:04.253Z,9.03
2018-11-06T22:06:32.612Z,9.53
2018-11-06T22:09:00.795Z,9.17
2018-11-06T22:11:28.973Z,8.80
2018-11-06T22:13:57.151Z,8.20
2018-11-06T22:16:25.364Z,8.53
2018-11-06T22:18:53.553Z,9.50
2018-11-06T22:21:21.734Z,8.10
2018-11-06T22:23:49.948Z,9.27
2018-11-06T22:26:18.118Z,9.67
2018-11-06T22:28:46.336Z,8.50
2018-11-06T22:31:14.553Z,9.33
2018-11-06T22:33:42.698Z,9.53
2018-11-06T22:36:10.879Z,8.90
2018-11-06T22:38:39.146Z,9.30
2018-11-06T22:41:07.319Z,9.20
2018-11-06T22:43:35.644Z,9.50
2018-11-06T22:46:03.823Z,9.03
2018-11-06T22:48:32.033Z,10.07
2018-11-06T22:51:00.276Z,8.77
2018-11-06T22:53:28.500Z,10.30
2018-11-06T22:55:56.732Z,7.93
2018-11-06T22:58:24.903Z,8.20
2018-11-06T23:00:58.525Z,8.33
2018-11-06T23:03:26.733Z,9.10
2018-11-06T23:05:54.988Z,9.10
2018-11-06T23:08:23.992Z,8.53
2018-11-06T23:10:52.417Z,8.60
2018-11-06T23:13:20.590Z,7.87
2018-11-06T23:15:48.795Z,8.10
2018-11-06T23:18:16.998Z,8.67
2018-11-06T23:20:45.206Z,8.93
2018-11-06T23:23:13.378Z,8.90
2018-11-06T23:25:41.592Z,8.47
2018-11-06T23:28:09.779Z,9.80
2018-11-06T23:30:38.009Z,8.43
2018-11-06T23:33:06.230Z,8.33
2018-11-06T23:35:34.449Z,8.67
2018-11-06T23:38:02.614Z,8.67
2018-11-06T23:40:30.832Z,8.77
2018-11-06T23:42:58.998Z,8.37
2018-11-06T23:45:27.224Z,8.90
2018-11-06T23:47:55.395Z,8.73
2018-11-06T23:50:23.609Z,8.70
2018-11-06T23:52:51.783Z,9.03
2018-11-06T23:55:20.074Z,9.50
2018-11-06T23:57:48.355Z,9.33
